Eastborough, Kansas
Current Conditions -  °F | °C
As of 8:08 AM on Saturday 20 Dec 2014 (Local Time) from KIAB Reporting Station
Haze Haze  
Wind Chill: 30°   Ceiling: 1900
Heat Index: 36°   Visibility: 5mi
Dew Point: 34°   Wind: 7mph
Humidity: 93%   Direction: 170°S
Pressure: 30.17"   Gusts: NA
Location:  37.6676°N, 97.2266°W
Report Text: KIAB 201408Z AUTO 17006KT 5SM BR OVC019 02/01 A3017 RMK AO2
Loading
Personal Weather Stations






























Interactive Weather Map New forecast layout! Learn more

10-Day Weather Forecast

Advertisements
Track Severe Weather on mobile